Time;durP1;ratioP1;P1;durP2;ratioP2;P2;SDS_P1;SDS_P2;PMS_P1;PMS_P2;Temp;Humidity;BMP_temperature;BMP_pressure;BME280_temperature;BME280_humidity;BME280_pressure;Samples;Min_cycle;Max_cycle;Signal;HPM_P1;HPM_P2
2023/05/18 00:00:22;;;;;;;4.50;1.35;;;;;;;6.16;91.18;101889.13;5167571;28;20037;-72
2023/05/18 00:02:52;;;;;;;4.25;1.42;;;;;;;5.62;90.81;101898.34;5163773;28;20117;-74
2023/05/18 00:05:23;;;;;;;2.67;1.02;;;;;;;5.77;94.03;101888.91;5166931;28;20450;-74
2023/05/18 00:07:53;;;;;;;4.32;1.15;;;;;;;5.97;93.58;101891.63;5166447;28;20047;-75
2023/05/18 00:10:23;;;;;;;6.60;1.08;;;;;;;6.04;92.06;101886.47;5188069;23;20049;-71
2023/05/18 00:12:54;;;;;;;7.18;1.27;;;;;;;5.85;91.74;101884.66;5167599;28;20111;-72
2023/05/18 00:15:24;;;;;;;4.75;1.38;;;;;;;5.95;90.32;101890.75;5163844;28;20034;-70
2023/05/18 00:17:55;;;;;;;7.43;1.40;;;;;;;5.60;93.83;101892.28;5166941;28;20511;-71
2023/05/18 00:20:26;;;;;;;5.53;1.40;;;;;;;5.76;93.43;101894.09;5162689;28;20256;-71
2023/05/18 00:22:56;;;;;;;3.25;1.27;;;;;;;5.64;93.53;101891.44;5168246;28;20036;-71
2023/05/18 00:25:26;;;;;;;3.35;1.17;;;;;;;5.75;94.17;101897.56;5166906;28;20476;-71
2023/05/18 00:27:56;;;;;;;6.88;1.08;;;;;;;5.64;94.23;101887.13;5164370;28;20032;-72
2023/05/18 00:30:27;;;;;;;4.22;1.27;;;;;;;5.58;93.93;101896.59;5162961;28;20256;-72
2023/05/18 00:32:57;;;;;;;7.85;1.20;;;;;;;5.78;92.06;101894.97;5170031;28;20018;-71
2023/05/18 00:35:28;;;;;;;5.40;1.10;;;;;;;5.85;91.52;101904.53;5168029;28;20038;-71
2023/05/18 00:37:58;;;;;;;5.28;1.30;;;;;;;5.89;90.35;101894.19;5166946;28;20480;-71
2023/05/18 00:40:28;;;;;;;5.78;1.35;;;;;;;5.80;91.92;101898.47;5162017;28;20076;-71
2023/05/18 00:42:59;;;;;;;7.43;1.55;;;;;;;5.34;93.29;101905.94;5166187;28;20025;-71
2023/05/18 00:45:29;;;;;;;3.25;1.02;;;;;;;5.23;96.20;101902.41;5163916;28;20122;-72
2023/05/18 00:48:00;;;;;;;4.03;1.13;;;;;;;5.13;95.85;101909.25;5166345;28;20022;-72
2023/05/18 00:50:30;;;;;;;6.68;1.38;;;;;;;5.20;95.30;101903.25;5166117;28;20018;-72
2023/05/18 00:53:01;;;;;;;7.72;1.15;;;;;;;5.33;92.37;101899.88;5167719;28;20041;-71
2023/05/18 00:55:31;;;;;;;4.47;1.10;;;;;;;5.23;95.68;101900.69;5155020;28;20026;-71
2023/05/18 00:58:04;;;;;;;4.10;1.00;;;;;;;5.52;92.64;101906.91;5162555;28;20030;-72
2023/05/18 01:00:36;;;;;;;6.65;1.10;;;;;;;5.66;91.79;101907.88;5165265;28;20583;-71
2023/05/18 01:03:09;;;;;;;3.85;0.90;;;;;;;5.53;91.91;101904.34;5166533;28;20034;-71
2023/05/18 01:05:41;;;;;;;4.07;1.10;;;;;;;5.31;92.62;101909.38;5167232;28;20146;-72
2023/05/18 01:08:11;;;;;;;4.95;1.55;;;;;;;5.22;94.33;101911.91;5164821;28;20112;-71
2023/05/18 01:10:44;;;;;;;4.68;1.17;;;;;;;4.87;93.87;101915.94;5168429;28;20518;-71
2023/05/18 01:13:22;;;;;;;3.83;0.95;;;;;;;5.01;95.58;101908.28;5161213;28;20125;-71
2023/05/18 01:15:56;;;;;;;3.50;1.27;;;;;;;4.92;95.87;101905.59;5159945;28;20034;-70
2023/05/18 01:18:45;;;;;;;2.67;0.90;;;;;;;4.71;96.88;101918.38;5161094;28;20435;-72
2023/05/18 01:22:11;;;;;;;4.90;1.52;;;;;;;5.05;95.38;101912.63;5165219;28;20030;-72
2023/05/18 01:24:47;;;;;;;4.05;1.17;;;;;;;5.18;93.20;101896.31;5144881;28;20042;-72
2023/05/18 01:27:23;;;;;;;5.20;1.17;;;;;;;5.18;92.90;101911.88;5157989;28;20052;-71
2023/05/18 01:29:55;;;;;;;3.40;1.10;;;;;;;5.01;91.39;101913.47;5157613;28;20519;-71
2023/05/18 01:32:25;;;;;;;5.32;1.00;;;;;;;4.76;94.67;101924.44;5158978;28;20113;-71
2023/05/18 01:34:56;;;;;;;5.30;1.40;;;;;;;4.87;94.04;101923.72;5168294;28;20112;-72
2023/05/18 01:37:26;;;;;;;5.10;1.10;;;;;;;4.84;95.57;101923.66;5163712;28;20242;-71
2023/05/18 01:39:56;;;;;;;2.05;0.93;;;;;;;4.29;97.96;101926.53;5163712;28;20023;-72
2023/05/18 01:42:29;;;;;;;5.63;1.30;;;;;;;4.21;100.00;101927.31;5163775;28;20023;-71
2023/05/18 01:45:06;;;;;;;6.15;1.50;;;;;;;4.15;100.00;101922.94;5168409;28;20392;-71
2023/05/18 01:47:43;;;;;;;4.78;1.35;;;;;;;4.19;100.00;101932.50;5160758;28;20034;-70
2023/05/18 01:50:21;;;;;;;4.30;1.30;;;;;;;4.46;98.18;101929.34;5161252;28;20022;-71
2023/05/18 01:53:05;;;;;;;3.03;1.30;;;;;;;4.44;97.39;101931.03;5157398;28;20034;-72
2023/05/18 01:55:36;;;;;;;2.72;0.90;;;;;;;4.67;96.43;101925.22;5166204;28;20121;-71
2023/05/18 01:58:08;;;;;;;5.90;1.20;;;;;;;4.57;94.91;101930.28;5163237;28;20045;-71
2023/05/18 02:00:39;;;;;;;5.03;1.30;;;;;;;4.48;95.72;101935.41;5162710;28;20038;-71
2023/05/18 02:03:11;;;;;;;5.30;1.05;;;;;;;4.31;97.30;101930.03;5165745;28;20037;-71
2023/05/18 02:05:42;;;;;;;2.58;1.00;;;;;;;4.37;98.24;101930.09;5166673;28;20121;-72
2023/05/18 02:08:12;;;;;;;4.40;1.00;;;;;;;4.35;98.08;101937.00;5161503;28;20491;-73
2023/05/18 02:10:42;;;;;;;7.25;1.42;;;;;;;4.32;95.30;101933.50;5167294;28;20030;-72
2023/05/18 02:13:13;;;;;;;7.47;1.25;;;;;;;4.30;95.75;101930.88;5160920;28;20054;-72
2023/05/18 02:15:43;;;;;;;4.82;1.00;;;;;;;4.08;98.53;101938.34;5163330;28;20057;-72
2023/05/18 02:18:15;;;;;;;4.38;1.10;;;;;;;3.96;98.65;101941.66;5161254;28;20026;-71
2023/05/18 02:20:47;;;;;;;3.83;1.23;;;;;;;3.81;99.66;101936.28;5157748;28;20029;-72
2023/05/18 02:23:17;;;;;;;4.57;1.20;;;;;;;3.76;99.67;101931.94;5160518;28;20041;-72
2023/05/18 02:25:48;;;;;;;5.28;1.35;;;;;;;3.58;100.00;101941.13;5163832;28;20026;-71
2023/05/18 02:28:18;;;;;;;5.13;1.08;;;;;;;3.63;100.00;101930.88;5160047;28;20034;-71
2023/05/18 02:30:48;;;;;;;5.32;1.80;;;;;;;3.74;100.00;101939.66;5165811;28;20397;-71
2023/05/18 02:33:24;;;;;;;4.63;2.05;;;;;;;3.62;100.00;101941.22;5163168;28;20740;-72
2023/05/18 02:35:56;;;;;;;6.47;1.40;;;;;;;3.79;100.00;101937.13;5161646;28;20476;-72
2023/05/18 02:38:26;;;;;;;9.95;1.60;;;;;;;3.79;100.00;101932.81;5159807;28;20072;-72
2023/05/18 02:40:56;;;;;;;5.38;1.63;;;;;;;3.78;100.00;101933.66;5156651;28;20436;-70
2023/05/18 02:43:26;;;;;;;5.10;1.50;;;;;;;3.77;100.00;101942.28;5158177;28;20054;-72
2023/05/18 02:45:57;;;;;;;5.80;1.92;;;;;;;4.20;98.82;101930.75;5158389;28;20030;-73
2023/05/18 02:48:27;;;;;;;4.25;1.60;;;;;;;3.96;98.45;101940.81;5152858;28;20491;-70
2023/05/18 02:50:58;;;;;;;5.22;1.52;;;;;;;4.30;98.36;101933.47;5157392;28;20049;-71
2023/05/18 02:53:28;;;;;;;4.43;1.63;;;;;;;4.45;95.96;101932.78;5157570;28;20466;-71
2023/05/18 02:56:02;;;;;;;4.75;1.98;;;;;;;4.25;95.17;101940.31;5151182;28;20491;-70
2023/05/18 02:58:32;;;;;;;3.80;1.40;;;;;;;4.04;98.81;101949.53;5158733;28;20034;-71
2023/05/18 03:01:06;;;;;;;3.08;1.42;;;;;;;4.12;98.22;101950.50;5161035;28;20052;-71
2023/05/18 03:03:38;;;;;;;4.82;1.35;;;;;;;4.00;98.84;101946.06;5163512;28;20112;-70
2023/05/18 03:06:08;;;;;;;3.92;1.30;;;;;;;4.05;99.79;101944.38;5158220;28;20131;-71
2023/05/18 03:08:40;;;;;;;6.25;1.35;;;;;;;3.73;97.21;101948.25;5156245;28;20104;-70
2023/05/18 03:11:10;;;;;;;6.57;2.10;;;;;;;3.83;99.17;101950.13;5159309;28;20247;-71
2023/05/18 03:13:41;;;;;;;2.80;1.45;;;;;;;3.59;97.93;101949.78;5159770;28;20653;-71
2023/05/18 03:16:12;;;;;;;4.32;1.10;;;;;;;3.55;99.97;101961.75;5159312;28;20070;-71
2023/05/18 03:18:42;;;;;;;4.60;1.30;;;;;;;3.62;100.00;101962.72;5160155;28;20073;-70
2023/05/18 03:21:12;;;;;;;4.65;1.30;;;;;;;3.99;98.57;101951.19;5156397;28;20913;-71
2023/05/18 03:23:43;;;;;;;3.97;1.10;;;;;;;4.09;94.68;101950.47;5160725;28;20045;-70
2023/05/18 03:26:15;;;;;;;3.53;1.20;;;;;;;3.77;96.15;101950.03;5156188;28;20030;-71
2023/05/18 03:28:45;;;;;;;4.15;1.30;;;;;;;4.07;97.21;101950.44;5156818;28;20233;-71
2023/05/18 03:31:16;;;;;;;6.28;1.52;;;;;;;4.08;94.95;101949.59;5157172;28;20034;-70
2023/05/18 03:33:46;;;;;;;3.65;1.10;;;;;;;3.64;95.96;101958.44;5161218;28;20549;-71
2023/05/18 03:36:16;;;;;;;5.35;1.40;;;;;;;3.56;99.57;101960.91;5161295;28;20855;-71
2023/05/18 03:38:46;;;;;;;4.68;1.45;;;;;;;3.89;100.00;101951.91;5167045;28;20087;-71
2023/05/18 03:41:17;;;;;;;3.75;1.50;;;;;;;3.63;99.27;101961.88;5161931;28;20033;-71
2023/05/18 03:43:47;;;;;;;5.22;1.60;;;;;;;3.81;98.88;101962.13;5167114;28;20033;-71
2023/05/18 03:46:17;;;;;;;4.63;1.60;;;;;;;3.61;96.98;101962.72;5167205;28;20548;-70
2023/05/18 03:48:48;;;;;;;3.25;1.30;;;;;;;3.95;98.55;101955.44;5162071;28;20061;-69
2023/05/18 03:51:19;;;;;;;4.25;1.27;;;;;;;4.30;95.17;101959.34;5147946;28;20038;-71
2023/05/18 03:53:49;;;;;;;2.92;1.30;;;;;;;4.14;93.13;101954.81;5163574;28;20030;-71
2023/05/18 03:56:21;;;;;;;5.43;1.58;;;;;;;4.02;94.97;101959.88;5161756;28;20053;-70
2023/05/18 03:58:52;;;;;;;4.93;1.30;;;;;;;3.98;96.09;101964.97;5159166;28;20054;-70
2023/05/18 04:01:23;;;;;;;5.82;1.92;;;;;;;3.80;97.35;101967.31;5160416;28;20089;-70
2023/05/18 04:03:55;;;;;;;2.72;1.33;;;;;;;3.77;100.00;101964.69;5169313;28;20451;-70
2023/05/18 04:06:25;;;;;;;4.78;1.38;;;;;;;3.89;100.00;101965.72;5167600;28;20030;-70
2023/05/18 04:08:55;;;;;;;4.90;1.40;;;;;;;3.88;99.51;101963.09;5170010;28;20030;-71
2023/05/18 04:11:25;;;;;;;6.57;1.35;;;;;;;4.15;99.67;101968.66;5167847;28;20030;-71
2023/05/18 04:13:56;;;;;;;6.82;1.42;;;;;;;3.78;98.29;101972.44;5161115;28;20041;-71
2023/05/18 04:16:27;;;;;;;3.17;1.20;;;;;;;3.64;100.00;101968.78;5163313;28;20022;-69
2023/05/18 04:18:59;;;;;;;5.47;1.30;;;;;;;3.82;100.00;101976.81;5158849;28;20031;-69
2023/05/18 04:21:35;;;;;;;5.03;1.73;;;;;;;3.86;100.00;101970.84;5161448;28;20028;-71
2023/05/18 04:24:06;;;;;;;6.45;1.35;;;;;;;4.44;100.00;101962.94;5166468;28;20026;-72
2023/05/18 04:26:37;;;;;;;8.02;2.00;;;;;;;4.60;96.75;101969.19;5168581;28;20026;-69
2023/05/18 04:29:09;;;;;;;2.58;1.33;;;;;;;4.49;97.16;101969.03;5163386;28;20688;-71
2023/05/18 04:31:43;;;;;;;3.42;1.15;;;;;;;4.82;96.75;101978.91;5160603;28;20034;-72
2023/05/18 04:34:16;;;;;;;3.55;1.42;;;;;;;4.82;96.28;101976.31;5165595;28;20030;-71
2023/05/18 04:36:46;;;;;;;3.45;1.35;;;;;;;4.67;96.55;101977.00;5159147;28;20550;-71
2023/05/18 04:39:17;;;;;;;4.00;1.20;;;;;;;4.78;96.66;101982.31;5158818;28;20034;-72
2023/05/18 04:41:49;;;;;;;3.05;1.20;;;;;;;4.77;97.93;101986.63;5158452;28;20100;-71
2023/05/18 04:44:19;;;;;;;4.57;1.48;;;;;;;5.05;98.16;101985.16;5162787;28;20022;-71
2023/05/18 04:46:51;;;;;;;5.72;1.50;;;;;;;5.61;94.37;101982.19;5157132;28;20085;-70
2023/05/18 04:49:22;;;;;;;5.68;1.33;;;;;;;5.56;92.81;101987.31;5155649;28;20053;-70
2023/05/18 04:51:54;;;;;;;3.67;1.15;;;;;;;6.50;88.95;101974.03;5155691;28;20074;-70
2023/05/18 04:54:30;;;;;;;5.38;1.10;;;;;;;7.15;86.23;101968.94;5159270;28;20076;-71
2023/05/18 04:57:02;;;;;;;4.53;1.10;;;;;;;7.40;85.99;101968.94;5161584;28;20109;-71
2023/05/18 04:59:35;;;;;;;3.38;1.20;;;;;;;8.43;78.58;101968.72;5166185;28;20057;-71
2023/05/18 05:02:06;;;;;;;2.97;1.00;;;;;;;9.65;79.58;101963.50;5162148;28;20022;-71
2023/05/18 05:04:36;;;;;;;5.68;1.23;;;;;;;10.24;74.10;101966.34;5159334;28;20034;-70
2023/05/18 05:07:07;;;;;;;2.95;1.00;;;;;;;9.74;74.21;101968.59;5158673;28;20911;-72
2023/05/18 05:09:37;;;;;;;5.10;1.50;;;;;;;9.60;74.08;101975.69;5157889;28;20342;-72
2023/05/18 05:12:08;;;;;;;5.88;1.20;;;;;;;10.19;73.96;101968.16;5163093;28;20034;-72
2023/05/18 05:14:38;;;;;;;2.38;0.90;;;;;;;10.95;72.06;101968.84;5157768;28;20184;-71
2023/05/18 05:17:08;;;;;;;3.15;1.08;;;;;;;12.53;67.38;101971.22;5161156;28;20531;-72
2023/05/18 05:19:41;;;;;;;3.75;1.10;;;;;;;11.63;67.96;101962.50;5161499;28;20133;-73
2023/05/18 05:22:11;;;;;;;4.18;1.23;;;;;;;10.23;71.32;101969.84;5160977;28;20124;-73
2023/05/18 05:24:42;;;;;;;2.15;1.00;;;;;;;11.70;69.92;101964.16;5162818;28;20333;-72
2023/05/18 05:27:12;;;;;;;3.97;1.33;;;;;;;13.56;64.33;101958.25;5158507;28;20092;-70
2023/05/18 05:29:45;;;;;;;3.90;1.20;;;;;;;14.07;62.82;101956.03;5158712;28;20022;-72
2023/05/18 05:32:16;;;;;;;3.83;1.20;;;;;;;15.59;59.89;101953.91;5159012;28;20118;-71
2023/05/18 05:34:49;;;;;;;6.15;1.65;;;;;;;13.98;61.81;101966.78;5165105;28;20026;-72
2023/05/18 05:37:19;;;;;;;2.58;1.20;;;;;;;13.78;62.83;101971.72;5162447;28;20065;-72
2023/05/18 05:39:49;;;;;;;3.83;1.30;;;;;;;14.38;63.07;101968.28;5161846;28;20118;-71
2023/05/18 05:42:20;;;;;;;4.47;1.40;;;;;;;15.90;60.19;101953.69;5162538;28;20538;-73
2023/05/18 05:44:50;;;;;;;4.15;1.10;;;;;;;15.17;61.31;101963.16;5162575;28;20495;-72
2023/05/18 05:47:21;;;;;;;2.58;1.20;;;;;;;16.18;58.45;101964.97;5166418;28;20042;-72
2023/05/18 05:49:51;;;;;;;4.95;1.42;;;;;;;15.77;57.46;101965.56;5145524;28;20069;-70
2023/05/18 05:52:22;;;;;;;3.75;1.48;;;;;;;15.28;59.67;101962.81;5157963;28;20034;-71
2023/05/18 05:54:52;;;;;;;4.43;1.40;;;;;;;15.03;60.87;101956.63;5157115;28;20030;-71
2023/05/18 05:57:22;;;;;;;4.00;1.25;;;;;;;14.93;60.51;101963.97;5158046;28;20492;-70
2023/05/18 05:59:53;;;;;;;6.75;1.58;;;;;;;14.33;62.72;101964.94;5160598;28;20121;-71
2023/05/18 06:02:23;;;;;;;3.92;1.25;;;;;;;13.46;64.60;101972.56;5164835;28;20042;-71
2023/05/18 06:04:53;;;;;;;4.65;1.50;;;;;;;12.41;67.14;101974.09;5161379;28;20528;-73
2023/05/18 06:07:23;;;;;;;5.25;1.42;;;;;;;13.12;68.32;101973.38;5161224;28;20026;-71
2023/05/18 06:09:54;;;;;;;4.13;1.63;;;;;;;12.69;68.05;101977.88;5176613;22;20042;-73
2023/05/18 06:12:24;;;;;;;4.88;1.75;;;;;;;13.08;69.11;101971.75;5159300;28;20081;-73
2023/05/18 06:14:58;;;;;;;4.35;1.35;;;;;;;12.07;69.87;101985.25;5151926;28;20031;-73
2023/05/18 06:17:29;;;;;;;5.93;1.23;;;;;;;12.47;69.24;101980.97;5151546;28;20030;-73
2023/05/18 06:19:59;;;;;;;3.20;1.60;;;;;;;12.42;69.67;101978.44;5156266;28;20058;-73
2023/05/18 06:22:30;;;;;;;9.20;1.70;;;;;;;13.28;66.00;101970.38;5155240;28;20065;-73
2023/05/18 06:25:00;;;;;;;7.20;1.40;;;;;;;13.41;67.44;101973.56;5168981;28;20030;-73
2023/05/18 06:27:31;;;;;;;4.97;1.40;;;;;;;14.19;64.60;101969.72;5161872;28;20576;-73
2023/05/18 06:30:04;;;;;;;7.50;1.13;;;;;;;14.45;63.08;101971.59;5162899;28;20037;-73
2023/05/18 06:32:36;;;;;;;6.32;1.42;;;;;;;14.19;62.51;101960.94;5154128;28;20523;-73
2023/05/18 06:35:06;;;;;;;6.10;1.30;;;;;;;15.30;60.39;101964.53;5159467;28;20051;-73
2023/05/18 06:37:38;;;;;;;6.13;1.20;;;;;;;15.56;59.44;101964.50;5160792;28;20064;-73
2023/05/18 06:40:09;;;;;;;8.15;1.30;;;;;;;15.17;59.79;101970.22;5160608;28;20033;-73
2023/05/18 06:42:39;;;;;;;4.05;0.90;;;;;;;13.79;61.84;101981.31;5159112;28;20392;-73
2023/05/18 06:45:10;;;;;;;7.32;1.27;;;;;;;14.43;62.77;101982.16;5160688;28;20096;-73
2023/05/18 06:47:41;;;;;;;7.85;1.27;;;;;;;13.06;64.47;101984.03;5161961;28;20350;-73
2023/05/18 06:50:12;;;;;;;4.80;1.20;;;;;;;13.40;63.51;101984.97;5171491;28;20577;-73
2023/05/18 06:52:43;;;;;;;7.28;1.40;;;;;;;12.73;65.06;101990.00;5158050;28;20136;-73
2023/05/18 06:55:14;;;;;;;4.82;1.05;;;;;;;13.33;63.78;101988.63;5154402;28;20042;-73
2023/05/18 06:57:44;;;;;;;8.07;1.40;;;;;;;14.17;63.18;101989.06;5155291;28;20025;-73
2023/05/18 07:00:15;;;;;;;5.07;1.13;;;;;;;14.24;60.52;101993.25;5155555;28;20049;-72
2023/05/18 07:02:46;;;;;;;4.45;0.90;;;;;;;14.89;61.27;101982.53;5155737;28;20033;-73
2023/05/18 07:05:17;;;;;;;4.15;1.08;;;;;;;15.57;59.21;101983.84;5148010;28;20030;-74
2023/05/18 07:07:47;;;;;;;7.50;1.27;;;;;;;15.41;58.48;101980.00;5155082;28;20026;-73
2023/05/18 07:10:18;;;;;;;6.07;1.13;;;;;;;14.80;59.20;101989.84;5171896;28;20118;-72
2023/05/18 07:12:48;;;;;;;4.32;0.93;;;;;;;16.16;57.21;101975.56;5162214;28;20026;-73
2023/05/18 07:15:19;;;;;;;7.68;1.23;;;;;;;16.06;57.26;101981.25;5159958;28;20556;-74
2023/05/18 07:17:49;;;;;;;3.80;1.05;;;;;;;15.83;56.55;101982.03;5161911;28;20034;-73
2023/05/18 07:20:19;;;;;;;8.68;1.30;;;;;;;14.57;59.35;101990.50;5157059;28;20046;-74
2023/05/18 07:22:50;;;;;;;4.78;1.23;;;;;;;14.83;60.33;101993.25;5159123;28;20626;-74
2023/05/18 07:25:21;;;;;;;4.38;1.00;;;;;;;15.88;57.63;101980.09;5157731;28;20543;-73
2023/05/18 07:27:53;;;;;;;3.85;0.95;;;;;;;16.18;56.21;101986.09;5156093;28;20030;-72
2023/05/18 07:30:25;;;;;;;6.38;1.00;;;;;;;16.07;57.04;101982.97;5164571;28;20380;-73
2023/05/18 07:32:55;;;;;;;4.70;0.85;;;;;;;14.34;59.93;102000.84;5157816;28;20042;-73
2023/05/18 07:35:25;;;;;;;2.95;0.90;;;;;;;15.33;58.98;101988.13;5149898;28;20080;-72
2023/05/18 07:37:56;;;;;;;3.05;0.82;;;;;;;15.44;59.42;101996.56;5156470;28;20030;-73
2023/05/18 07:40:26;;;;;;;2.88;0.90;;;;;;;16.02;56.97;101983.13;5161921;28;20463;-74
2023/05/18 07:42:56;;;;;;;7.47;1.10;;;;;;;16.72;56.67;101977.00;5159245;28;20038;-73
2023/05/18 07:45:27;;;;;;;3.70;1.17;;;;;;;16.27;56.86;101976.06;5161670;28;20027;-73
2023/05/18 07:47:57;;;;;;;4.32;1.10;;;;;;;17.03;56.30;101975.75;5157661;28;20089;-73
2023/05/18 07:50:28;;;;;;;2.85;0.98;;;;;;;17.66;54.44;101982.88;5159843;28;20424;-73
2023/05/18 07:52:59;;;;;;;4.80;1.10;;;;;;;16.32;56.40;101975.88;5160772;28;20034;-73
2023/05/18 07:55:29;;;;;;;5.72;1.00;;;;;;;17.27;55.24;101981.81;5162767;28;20078;-72
2023/05/18 07:57:59;;;;;;;5.68;1.13;;;;;;;17.66;53.90;101978.41;5160350;28;20121;-73
2023/05/18 08:00:30;;;;;;;4.00;0.90;;;;;;;18.86;51.35;101971.19;5167201;28;20022;-73
2023/05/18 08:03:00;;;;;;;6.82;1.35;;;;;;;19.65;50.56;101971.66;5168508;28;20026;-74
2023/05/18 08:05:31;;;;;;;3.30;0.73;;;;;;;19.95;49.52;101971.91;5166013;28;20125;-73
2023/05/18 08:08:02;;;;;;;5.53;1.17;;;;;;;19.88;49.47;101975.78;5163951;28;20030;-73
2023/05/18 08:10:33;;;;;;;3.67;0.90;;;;;;;20.00;50.13;101972.50;5167845;28;20018;-74
2023/05/18 08:13:03;;;;;;;6.32;1.05;;;;;;;20.32;50.63;101972.56;5164562;28;20034;-74
2023/05/18 08:15:34;;;;;;;5.30;0.90;;;;;;;19.41;50.68;101982.66;5169318;28;20279;-72
2023/05/18 08:18:05;;;;;;;3.40;0.85;;;;;;;20.28;49.36;101962.19;5182294;28;20285;-73
2023/05/18 08:20:35;;;;;;;5.40;1.08;;;;;;;18.38;52.11;101975.22;5166048;28;20018;-74
2023/05/18 08:23:05;;;;;;;2.47;0.80;;;;;;;21.38;48.47;101965.69;5168063;28;20026;-74
2023/05/18 08:25:36;;;;;;;3.50;0.88;;;;;;;22.33;47.29;101958.97;5167664;28;20277;-73
2023/05/18 08:28:06;;;;;;;6.50;1.23;;;;;;;22.94;45.95;101957.69;5161252;28;20026;-73
2023/05/18 08:30:36;;;;;;;3.80;1.15;;;;;;;22.90;46.05;101964.19;5161473;28;20030;-74
2023/05/18 08:33:07;;;;;;;3.67;1.10;;;;;;;22.31;46.06;101960.03;5155052;28;20412;-74
2023/05/18 08:35:38;;;;;;;4.43;1.08;;;;;;;22.55;46.03;101953.19;5160556;28;20035;-73
2023/05/18 08:38:08;;;;;;;6.85;1.00;;;;;;;20.76;48.00;101960.38;5159723;28;20409;-74
2023/05/18 08:40:48;;;;;;;2.97;0.80;;;;;;;20.84;47.66;101960.81;5156079;28;20069;-74
2023/05/18 08:43:27;;;;;;;4.10;1.40;;;;;;;20.86;48.26;101958.97;5156890;28;20298;-74
2023/05/18 08:46:05;;;;;;;2.97;0.80;;;;;;;20.67;49.80;101946.75;5161041;28;20022;-73
2023/05/18 08:48:36;;;;;;;4.45;1.10;;;;;;;21.43;47.76;101952.97;5158883;28;20296;-73
2023/05/18 08:51:08;;;;;;;4.88;1.38;;;;;;;23.09;46.04;101940.69;5161516;28;20113;-74
2023/05/18 08:53:39;;;;;;;5.18;1.10;;;;;;;22.86;46.19;101941.31;5164872;28;20041;-74
2023/05/18 08:56:11;;;;;;;4.45;1.00;;;;;;;21.27;47.34;101946.81;5162615;28;20103;-75
2023/05/18 08:58:50;;;;;;;3.83;1.00;;;;;;;21.22;47.72;101943.59;5170097;28;20065;-74
2023/05/18 09:01:27;;;;;;;3.15;0.82;;;;;;;21.31;46.31;101946.56;5172964;28;20086;-75
2023/05/18 09:03:57;;;;;;;3.85;0.80;;;;;;;22.54;47.55;101940.81;5162603;28;20042;-74
2023/05/18 09:06:28;;;;;;;4.80;0.82;;;;;;;23.12;47.34;101929.84;5167068;28;20026;-73
2023/05/18 09:09:03;;;;;;;4.25;1.10;;;;;;;20.07;48.92;101945.59;5167811;28;20026;-74
2023/05/18 09:11:34;;;;;;;5.78;1.13;;;;;;;19.39;49.16;101942.94;5162414;28;20559;-73
2023/05/18 09:14:05;;;;;;;2.78;0.82;;;;;;;19.36;51.30;101945.75;5162985;28;20034;-73
2023/05/18 09:16:35;;;;;;;4.65;0.90;;;;;;;19.53;50.55;101943.13;5167086;28;20395;-72
2023/05/18 09:19:06;;;;;;;5.63;1.17;;;;;;;20.70;49.54;101939.47;5158327;28;20064;-73
2023/05/18 09:21:36;;;;;;;4.75;0.93;;;;;;;18.20;52.43;101951.34;5163478;28;20294;-72
2023/05/18 09:24:07;;;;;;;4.70;1.10;;;;;;;19.14;51.71;101947.69;5158508;28;20152;-74
2023/05/18 09:26:37;;;;;;;6.30;1.13;;;;;;;18.23;51.85;101948.56;5160066;28;20617;-74
2023/05/18 09:29:16;;;;;;;5.85;1.20;;;;;;;18.20;53.44;101951.34;5153622;28;20042;-74
2023/05/18 09:31:47;;;;;;;5.30;1.00;;;;;;;19.55;50.64;101933.28;5159392;28;20621;-74
2023/05/18 09:34:18;;;;;;;3.78;0.70;;;;;;;20.72;49.72;101919.81;5164932;28;20440;-74
2023/05/18 09:36:51;;;;;;;3.67;0.98;;;;;;;20.78;48.27;101921.28;5159040;28;20034;-74
2023/05/18 09:39:21;;;;;;;3.20;1.05;;;;;;;21.08;48.55;101916.91;5158330;28;20112;-74
2023/05/18 09:41:56;;;;;;;7.00;1.20;;;;;;;21.51;48.67;101916.97;5162801;28;20045;-75
2023/05/18 09:44:32;;;;;;;4.53;0.83;;;;;;;20.73;48.27;101931.31;5165210;28;20273;-74
2023/05/18 09:47:08;;;;;;;4.28;0.82;;;;;;;19.50;49.36;101929.16;5162020;28;20508;-74
2023/05/18 09:49:39;;;;;;;5.28;1.13;;;;;;;19.37;50.95;101931.56;5164842;28;20119;-73
2023/05/18 09:52:10;;;;;;;3.47;0.85;;;;;;;20.98;48.67;101926.34;5161739;28;20040;-74
2023/05/18 09:54:41;;;;;;;5.60;1.15;;;;;;;21.33;48.73;101919.84;5165949;28;20487;-73
2023/05/18 09:57:11;;;;;;;7.88;1.48;;;;;;;18.34;53.40;101926.00;5170183;28;20343;-72
2023/05/18 09:59:41;;;;;;;4.43;0.80;;;;;;;18.63;52.53;101929.94;5149012;28;20112;-73
2023/05/18 10:02:14;;;;;;;4.40;1.00;;;;;;;18.40;52.14;101935.44;5153016;28;20025;-74
2023/05/18 10:04:44;;;;;;;5.72;1.30;;;;;;;18.82;52.36;101929.00;5150646;28;20034;-74
2023/05/18 10:07:16;;;;;;;5.10;0.85;;;;;;;18.50;53.44;101924.34;5148884;28;20566;-73
2023/05/18 10:10:00;;;;;;;3.55;0.70;;;;;;;18.32;52.12;101919.91;5148477;28;20038;-74
2023/05/18 10:12:30;;;;;;;4.18;0.80;;;;;;;18.59;53.48;101915.13;5148319;28;20043;-73
2023/05/18 10:15:01;;;;;;;5.65;0.98;;;;;;;17.85;55.35;101923.78;5156995;28;20038;-73
2023/05/18 10:17:32;;;;;;;2.58;1.00;;;;;;;17.23;55.91;101930.00;5168386;28;20038;-73
2023/05/18 10:20:06;;;;;;;4.72;1.02;;;;;;;17.50;55.90;101923.63;5155497;28;20066;-74
2023/05/18 10:22:38;;;;;;;4.22;0.90;;;;;;;17.54;55.55;101927.84;5157178;28;20038;-73
2023/05/18 10:25:10;;;;;;;5.00;1.08;;;;;;;17.56;55.32;101920.69;5152344;28;20045;-74
2023/05/18 10:27:43;;;;;;;5.05;0.85;;;;;;;17.04;54.83;101924.63;5156988;28;20716;-73
2023/05/18 10:30:14;;;;;;;8.15;1.00;;;;;;;16.93;55.46;101916.28;5155045;28;20052;-74
2023/05/18 10:32:45;;;;;;;4.57;0.95;;;;;;;17.86;55.93;101917.56;5155921;28;20470;-73
2023/05/18 10:35:16;;;;;;;5.97;0.95;;;;;;;17.16;56.60;101916.19;5169727;28;20041;-73
2023/05/18 10:37:47;;;;;;;5.85;1.15;;;;;;;16.87;56.58;101915.66;5149711;28;20023;-73
2023/05/18 10:40:18;;;;;;;4.15;1.00;;;;;;;16.75;57.67;101918.78;5154537;28;20046;-73
2023/05/18 10:42:51;;;;;;;4.75;0.80;;;;;;;16.83;55.36;101911.41;5151931;28;20411;-72
2023/05/18 10:45:22;;;;;;;3.92;0.90;;;;;;;17.27;56.33;101903.41;5146770;28;20042;-73
2023/05/18 10:47:55;;;;;;;2.88;0.80;;;;;;;16.68;55.70;101903.22;5149819;28;20034;-72
2023/05/18 10:50:26;;;;;;;6.25;0.82;;;;;;;16.51;56.81;101901.25;5149633;28;20579;-73
2023/05/18 10:52:59;;;;;;;6.13;1.13;;;;;;;15.35;58.20;101899.38;5168605;28;20038;-73
2023/05/18 10:55:30;;;;;;;3.63;0.98;;;;;;;15.15;58.91;101899.16;5157764;28;20031;-74
2023/05/18 10:58:12;;;;;;;4.30;0.85;;;;;;;15.89;57.98;101897.44;5154534;28;20416;-73
2023/05/18 11:00:48;;;;;;;3.47;0.90;;;;;;;16.66;55.92;101898.03;5173278;28;20399;-73
2023/05/18 11:03:18;;;;;;;;;;;;;;;16.92;54.82;101893.41;5155453;28;20033;-73
2023/05/18 11:05:51;;;;;;;6.53;1.05;;;;;;;17.02;56.96;101888.63;5152515;28;20580;-73
2023/05/18 11:08:25;;;;;;;4.45;1.05;;;;;;;16.66;57.83;101884.81;5154048;28;20034;-73
2023/05/18 11:11:01;;;;;;;6.72;1.02;;;;;;;16.96;56.30;101888.88;5149911;28;20061;-73
2023/05/18 11:13:34;;;;;;;2.72;0.85;;;;;;;16.28;57.47;101890.69;5152830;28;20481;-73
2023/05/18 11:16:06;;;;;;;4.28;0.82;;;;;;;16.46;57.40;101892.66;5156747;28;20081;-74
2023/05/18 11:18:48;;;;;;;5.18;1.15;;;;;;;16.13;56.87;101887.75;5167559;28;20022;-73
2023/05/18 11:21:27;;;;;;;5.72;1.20;;;;;;;16.61;57.15;101891.19;5166334;28;20454;-74
2023/05/18 11:24:30;;;;;;;6.93;1.00;;;;;;;16.50;56.89;101877.56;5164371;28;20517;-73
2023/05/18 11:27:07;;;;;;;7.05;1.05;;;;;;;15.51;57.52;101881.28;5166878;28;20096;-72
2023/05/18 11:29:47;;;;;;;7.22;0.90;;;;;;;15.69;57.31;101881.47;5167672;28;21104;-72
2023/05/18 11:32:27;;;;;;;2.58;0.73;;;;;;;15.86;56.47;101884.38;5154758;28;20041;-74
2023/05/18 11:34:58;;;;;;;6.55;1.35;;;;;;;16.43;56.53;101876.97;5164736;28;20643;-73
2023/05/18 11:37:38;;;;;;;4.03;0.98;;;;;;;16.47;55.35;101875.03;5168489;28;20088;-73
2023/05/18 11:40:09;;;;;;;3.45;1.13;;;;;;;16.85;55.60;101869.97;5169388;28;20040;-73
2023/05/18 11:42:40;;;;;;;4.15;0.85;;;;;;;17.44;57.39;101866.56;5168297;28;20132;-74
2023/05/18 11:45:11;;;;;;;5.60;1.20;;;;;;;17.40;56.00;101870.28;5167218;28;20507;-74
2023/05/18 11:47:42;;;;;;;5.35;1.00;;;;;;;17.02;54.75;101867.50;5166346;28;20415;-74
2023/05/18 11:50:12;;;;;;;5.25;1.15;;;;;;;17.00;56.59;101878.09;5162693;28;20281;-74